sensor_id;sensor_type;location;lat;lon;timestamp;temperature;humidity
37754;DHT22;23596;52.520;13.464;2023-01-19T00:00:01;1.00;99.90
37754;DHT22;23596;52.520;13.464;2023-01-19T00:02:27;1.00;99.90
37754;DHT22;23596;52.520;13.464;2023-01-19T00:04:53;0.90;99.90
37754;DHT22;23596;52.520;13.464;2023-01-19T00:07:18;0.90;99.90
37754;DHT22;23596;52.520;13.464;2023-01-19T00:09:44;0.90;99.90
37754;DHT22;23596;52.520;13.464;2023-01-19T00:12:10;0.90;99.90
37754;DHT22;23596;52.520;13.464;2023-01-19T00:14:35;0.90;99.90
37754;DHT22;23596;52.520;13.464;2023-01-19T00:17:01;0.90;99.90
37754;DHT22;23596;52.520;13.464;2023-01-19T00:19:27;0.90;99.90
37754;DHT22;23596;52.520;13.464;2023-01-19T00:21:53;0.90;99.90
37754;DHT22;23596;52.520;13.464;2023-01-19T00:24:19;0.90;99.90
37754;DHT22;23596;52.520;13.464;2023-01-19T00:26:45;0.90;99.90
37754;DHT22;23596;52.520;13.464;2023-01-19T00:29:11;0.80;99.90
37754;DHT22;23596;52.520;13.464;2023-01-19T00:31:37;0.80;99.90
37754;DHT22;23596;52.520;13.464;2023-01-19T00:34:04;0.80;99.90
37754;DHT22;23596;52.520;13.464;2023-01-19T00:36:31;0.70;99.90
37754;DHT22;23596;52.520;13.464;2023-01-19T00:38:57;0.70;99.90
37754;DHT22;23596;52.520;13.464;2023-01-19T00:41:23;0.60;99.90
37754;DHT22;23596;52.520;13.464;2023-01-19T00:44:10;0.60;99.90
37754;DHT22;23596;52.520;13.464;2023-01-19T00:46:35;0.50;99.90
37754;DHT22;23596;52.520;13.464;2023-01-19T00:49:01;0.50;99.90
37754;DHT22;23596;52.520;13.464;2023-01-19T00:51:27;0.40;99.90
37754;DHT22;23596;52.520;13.464;2023-01-19T00:53:53;0.40;99.90
37754;DHT22;23596;52.520;13.464;2023-01-19T00:56:18;0.40;99.90
37754;DHT22;23596;52.520;13.464;2023-01-19T00:58:44;0.40;99.90
37754;DHT22;23596;52.520;13.464;2023-01-19T01:01:10;0.30;99.90
37754;DHT22;23596;52.520;13.464;2023-01-19T01:03:36;0.40;99.90
37754;DHT22;23596;52.520;13.464;2023-01-19T01:06:03;0.40;99.90
37754;DHT22;23596;52.520;13.464;2023-01-19T01:08:31;0.40;99.90
37754;DHT22;23596;52.520;13.464;2023-01-19T01:10:57;0.40;99.90
37754;DHT22;23596;52.520;13.464;2023-01-19T01:13:23;0.30;99.90
37754;DHT22;23596;52.520;13.464;2023-01-19T01:15:53;0.30;99.90
37754;DHT22;23596;52.520;13.464;2023-01-19T01:18:20;0.20;99.90
37754;DHT22;23596;52.520;13.464;2023-01-19T01:20:46;0.30;99.90
37754;DHT22;23596;52.520;13.464;2023-01-19T01:23:12;0.30;99.90
37754;DHT22;23596;52.520;13.464;2023-01-19T01:25:38;0.30;99.90
37754;DHT22;23596;52.520;13.464;2023-01-19T01:28:04;0.40;99.90
37754;DHT22;23596;52.520;13.464;2023-01-19T01:30:33;0.20;99.90
37754;DHT22;23596;52.520;13.464;2023-01-19T01:32:59;0.70;99.90
37754;DHT22;23596;52.520;13.464;2023-01-19T01:35:25;0.30;99.90
37754;DHT22;23596;52.520;13.464;2023-01-19T01:37:50;0.30;99.90
37754;DHT22;23596;52.520;13.464;2023-01-19T01:40:17;0.70;99.90
37754;DHT22;23596;52.520;13.464;2023-01-19T01:42:43;0.30;99.90
37754;DHT22;23596;52.520;13.464;2023-01-19T01:45:36;0.30;99.90
37754;DHT22;23596;52.520;13.464;2023-01-19T01:48:22;0.40;99.90
37754;DHT22;23596;52.520;13.464;2023-01-19T01:51:11;0.30;99.90
37754;DHT22;23596;52.520;13.464;2023-01-19T01:56:31;0.40;99.90
37754;DHT22;23596;52.520;13.464;2023-01-19T01:58:58;0.40;99.90
37754;DHT22;23596;52.520;13.464;2023-01-19T02:01:27;0.30;99.90
37754;DHT22;23596;52.520;13.464;2023-01-19T02:04:11;0.30;99.90
37754;DHT22;23596;52.520;13.464;2023-01-19T02:06:36;0.30;99.90
37754;DHT22;23596;52.520;13.464;2023-01-19T02:09:21;0.30;99.90
37754;DHT22;23596;52.520;13.464;2023-01-19T02:12:06;0.30;99.90
37754;DHT22;23596;52.520;13.464;2023-01-19T02:14:50;0.30;99.90
37754;DHT22;23596;52.520;13.464;2023-01-19T02:17:16;0.20;99.90
37754;DHT22;23596;52.520;13.464;2023-01-19T02:19:42;0.20;99.90
37754;DHT22;23596;52.520;13.464;2023-01-19T02:22:15;0.20;99.90
37754;DHT22;23596;52.520;13.464;2023-01-19T02:24:42;0.20;99.90
37754;DHT22;23596;52.520;13.464;2023-01-19T02:27:08;0.20;99.90
37754;DHT22;23596;52.520;13.464;2023-01-19T02:29:34;0.20;99.90
37754;DHT22;23596;52.520;13.464;2023-01-19T02:32:00;0.10;99.90
37754;DHT22;23596;52.520;13.464;2023-01-19T02:34:27;0.10;99.90
37754;DHT22;23596;52.520;13.464;2023-01-19T02:36:55;0.20;99.90
37754;DHT22;23596;52.520;13.464;2023-01-19T02:39:29;0.20;99.90
37754;DHT22;23596;52.520;13.464;2023-01-19T02:42:00;0.20;99.90
37754;DHT22;23596;52.520;13.464;2023-01-19T02:44:28;0.20;99.90
37754;DHT22;23596;52.520;13.464;2023-01-19T02:46:55;0.10;99.90
37754;DHT22;23596;52.520;13.464;2023-01-19T02:49:21;0.10;99.90
37754;DHT22;23596;52.520;13.464;2023-01-19T02:51:46;0.10;99.90
37754;DHT22;23596;52.520;13.464;2023-01-19T03:10:53;-0.10;99.90
37754;DHT22;23596;52.520;13.464;2023-01-19T03:16:48;-0.10;99.90
37754;DHT22;23596;52.520;13.464;2023-01-19T03:19:20;-0.10;99.90
37754;DHT22;23596;52.520;13.464;2023-01-19T03:21:49;-0.10;99.90
37754;DHT22;23596;52.520;13.464;2023-01-19T03:24:17;-0.10;99.90
37754;DHT22;23596;52.520;13.464;2023-01-19T03:26:48;-0.10;99.90
37754;DHT22;23596;52.520;13.464;2023-01-19T03:29:18;-0.10;99.90
37754;DHT22;23596;52.520;13.464;2023-01-19T03:31:46;-0.10;99.90
37754;DHT22;23596;52.520;13.464;2023-01-19T03:34:15;-0.20;99.90
37754;DHT22;23596;52.520;13.464;2023-01-19T03:36:45;0.80;99.90
37754;DHT22;23596;52.520;13.464;2023-01-19T03:39:23;-0.20;99.90
37754;DHT22;23596;52.520;13.464;2023-01-19T03:41:51;0.80;99.90
37754;DHT22;23596;52.520;13.464;2023-01-19T03:44:19;-0.20;99.90
37754;DHT22;23596;52.520;13.464;2023-01-19T03:46:45;-0.20;99.90
37754;DHT22;23596;52.520;13.464;2023-01-19T03:49:12;-0.20;99.90
37754;DHT22;23596;52.520;13.464;2023-01-19T03:51:38;-0.20;99.90
37754;DHT22;23596;52.520;13.464;2023-01-19T03:54:05;-0.30;99.90
37754;DHT22;23596;52.520;13.464;2023-01-19T03:56:31;-0.30;99.90
37754;DHT22;23596;52.520;13.464;2023-01-19T03:58:57;-0.30;99.90
37754;DHT22;23596;52.520;13.464;2023-01-19T04:01:22;-0.40;99.90
37754;DHT22;23596;52.520;13.464;2023-01-19T04:03:49;-0.50;99.90
37754;DHT22;23596;52.520;13.464;2023-01-19T04:06:16;-0.50;99.90
37754;DHT22;23596;52.520;13.464;2023-01-19T04:08:41;-0.50;99.90
37754;DHT22;23596;52.520;13.464;2023-01-19T04:11:07;-0.10;99.90
37754;DHT22;23596;52.520;13.464;2023-01-19T04:13:34;-0.60;99.90
37754;DHT22;23596;52.520;13.464;2023-01-19T04:16:00;1.30;99.90
37754;DHT22;23596;52.520;13.464;2023-01-19T04:18:30;0.20;99.90
37754;DHT22;23596;52.520;13.464;2023-01-19T04:21:04;-0.60;99.90
37754;DHT22;23596;52.520;13.464;2023-01-19T04:23:30;-0.70;99.90
37754;DHT22;23596;52.520;13.464;2023-01-19T04:26:07;-0.70;99.90
37754;DHT22;23596;52.520;13.464;2023-01-19T04:28:33;-0.70;99.90
37754;DHT22;23596;52.520;13.464;2023-01-19T04:31:00;-0.70;99.90
37754;DHT22;23596;52.520;13.464;2023-01-19T04:33:26;-0.70;99.90
37754;DHT22;23596;52.520;13.464;2023-01-19T04:35:52;-0.70;99.90
37754;DHT22;23596;52.520;13.464;2023-01-19T04:38:19;-0.70;99.90
37754;DHT22;23596;52.520;13.464;2023-01-19T04:40:45;-0.80;99.90
37754;DHT22;23596;52.520;13.464;2023-01-19T04:43:11;-0.80;99.90
37754;DHT22;23596;52.520;13.464;2023-01-19T04:45:37;-0.70;99.90
37754;DHT22;23596;52.520;13.464;2023-01-19T04:48:03;0.00;99.90
37754;DHT22;23596;52.520;13.464;2023-01-19T04:50:30;-0.80;99.90
37754;DHT22;23596;52.520;13.464;2023-01-19T04:52:56;1.40;99.90
37754;DHT22;23596;52.520;13.464;2023-01-19T04:55:22;-0.80;99.90
37754;DHT22;23596;52.520;13.464;2023-01-19T04:57:47;0.10;99.90
37754;DHT22;23596;52.520;13.464;2023-01-19T05:00:13;-0.70;99.90
37754;DHT22;23596;52.520;13.464;2023-01-19T05:02:39;-0.70;99.90
37754;DHT22;23596;52.520;13.464;2023-01-19T05:05:08;-0.80;99.90
37754;DHT22;23596;52.520;13.464;2023-01-19T05:07:34;-0.80;99.90
37754;DHT22;23596;52.520;13.464;2023-01-19T05:09:59;-0.80;99.90
37754;DHT22;23596;52.520;13.464;2023-01-19T05:12:25;-0.80;99.90
37754;DHT22;23596;52.520;13.464;2023-01-19T05:14:50;-0.30;99.90
37754;DHT22;23596;52.520;13.464;2023-01-19T05:17:16;-0.80;99.90
37754;DHT22;23596;52.520;13.464;2023-01-19T05:19:42;-0.70;99.90
37754;DHT22;23596;52.520;13.464;2023-01-19T05:22:08;2.20;99.90
37754;DHT22;23596;52.520;13.464;2023-01-19T05:24:33;-0.80;99.90
37754;DHT22;23596;52.520;13.464;2023-01-19T05:27:00;-0.70;99.90
37754;DHT22;23596;52.520;13.464;2023-01-19T05:29:26;-0.70;99.90
37754;DHT22;23596;52.520;13.464;2023-01-19T05:31:51;-0.70;99.90
37754;DHT22;23596;52.520;13.464;2023-01-19T05:34:17;-0.70;99.90
37754;DHT22;23596;52.520;13.464;2023-01-19T05:36:43;-0.60;99.90
37754;DHT22;23596;52.520;13.464;2023-01-19T05:39:08;-0.80;99.90
37754;DHT22;23596;52.520;13.464;2023-01-19T05:41:34;-0.80;99.90
37754;DHT22;23596;52.520;13.464;2023-01-19T05:44:00;-0.80;99.90
37754;DHT22;23596;52.520;13.464;2023-01-19T05:51:18;-0.80;99.90
37754;DHT22;23596;52.520;13.464;2023-01-19T05:53:43;-0.90;99.90
37754;DHT22;23596;52.520;13.464;2023-01-19T05:56:09;-0.80;99.90
37754;DHT22;23596;52.520;13.464;2023-01-19T05:58:36;-0.10;99.90
37754;DHT22;23596;52.520;13.464;2023-01-19T06:01:05;-0.90;99.90
37754;DHT22;23596;52.520;13.464;2023-01-19T06:03:33;0.30;99.90
37754;DHT22;23596;52.520;13.464;2023-01-19T06:05:59;-1.00;99.90
37754;DHT22;23596;52.520;13.464;2023-01-19T06:08:25;-0.80;99.90
37754;DHT22;23596;52.520;13.464;2023-01-19T06:10:50;-1.20;99.90
37754;DHT22;23596;52.520;13.464;2023-01-19T06:13:16;-0.10;99.90
37754;DHT22;23596;52.520;13.464;2023-01-19T06:15:42;-1.20;99.90
37754;DHT22;23596;52.520;13.464;2023-01-19T06:18:09;-1.20;99.90
37754;DHT22;23596;52.520;13.464;2023-01-19T06:20:35;-0.90;99.90
37754;DHT22;23596;52.520;13.464;2023-01-19T06:23:01;-1.20;99.90
37754;DHT22;23596;52.520;13.464;2023-01-19T06:25:27;-1.10;99.90
37754;DHT22;23596;52.520;13.464;2023-01-19T06:27:53;-1.10;99.90
37754;DHT22;23596;52.520;13.464;2023-01-19T06:30:19;-1.10;99.90
37754;DHT22;23596;52.520;13.464;2023-01-19T06:32:45;-1.10;99.90
37754;DHT22;23596;52.520;13.464;2023-01-19T06:35:12;-1.10;99.90
37754;DHT22;23596;52.520;13.464;2023-01-19T06:37:38;0.60;99.90
37754;DHT22;23596;52.520;13.464;2023-01-19T06:40:04;-1.00;99.90
37754;DHT22;23596;52.520;13.464;2023-01-19T06:42:30;-1.00;99.90
37754;DHT22;23596;52.520;13.464;2023-01-19T06:44:55;-1.00;99.90
37754;DHT22;23596;52.520;13.464;2023-01-19T06:47:21;-1.00;99.90
37754;DHT22;23596;52.520;13.464;2023-01-19T06:49:46;-1.00;99.90
37754;DHT22;23596;52.520;13.464;2023-01-19T06:52:13;-1.00;99.90
37754;DHT22;23596;52.520;13.464;2023-01-19T06:54:41;-0.80;99.90
37754;DHT22;23596;52.520;13.464;2023-01-19T06:57:08;-0.90;99.90
37754;DHT22;23596;52.520;13.464;2023-01-19T06:59:33;-1.00;99.90
37754;DHT22;23596;52.520;13.464;2023-01-19T07:01:59;-0.90;99.90
37754;DHT22;23596;52.520;13.464;2023-01-19T07:04:25;-1.00;99.90
37754;DHT22;23596;52.520;13.464;2023-01-19T07:06:51;-0.90;99.90
37754;DHT22;23596;52.520;13.464;2023-01-19T07:09:17;-0.90;99.90
37754;DHT22;23596;52.520;13.464;2023-01-19T07:11:45;-0.90;99.90
37754;DHT22;23596;52.520;13.464;2023-01-19T07:14:11;-0.90;99.90
37754;DHT22;23596;52.520;13.464;2023-01-19T07:16:37;-1.00;99.90
37754;DHT22;23596;52.520;13.464;2023-01-19T07:19:03;-0.90;99.90
37754;DHT22;23596;52.520;13.464;2023-01-19T07:21:29;-0.90;99.90
37754;DHT22;23596;52.520;13.464;2023-01-19T07:23:54;-0.90;99.90
37754;DHT22;23596;52.520;13.464;2023-01-19T07:26:20;-0.90;99.90
37754;DHT22;23596;52.520;13.464;2023-01-19T07:28:50;-0.90;99.90
37754;DHT22;23596;52.520;13.464;2023-01-19T07:31:15;-0.90;99.90
37754;DHT22;23596;52.520;13.464;2023-01-19T07:33:42;-1.00;99.90
37754;DHT22;23596;52.520;13.464;2023-01-19T07:36:07;-1.00;99.90
37754;DHT22;23596;52.520;13.464;2023-01-19T07:38:33;-1.00;99.90
37754;DHT22;23596;52.520;13.464;2023-01-19T07:41:08;-1.00;99.90
37754;DHT22;23596;52.520;13.464;2023-01-19T07:43:34;-1.00;99.90
37754;DHT22;23596;52.520;13.464;2023-01-19T07:46:01;-1.00;99.90
37754;DHT22;23596;52.520;13.464;2023-01-19T07:48:27;-1.00;99.90
37754;DHT22;23596;52.520;13.464;2023-01-19T07:51:01;-1.00;99.90
37754;DHT22;23596;52.520;13.464;2023-01-19T07:53:30;0.00;99.90
37754;DHT22;23596;52.520;13.464;2023-01-19T07:55:56;-1.10;99.90
37754;DHT22;23596;52.520;13.464;2023-01-19T07:58:25;-1.10;99.90
37754;DHT22;23596;52.520;13.464;2023-01-19T08:00:51;0.00;99.90
37754;DHT22;23596;52.520;13.464;2023-01-19T08:03:17;0.00;99.90
37754;DHT22;23596;52.520;13.464;2023-01-19T08:05:44;-1.00;99.90
37754;DHT22;23596;52.520;13.464;2023-01-19T08:08:09;-0.90;99.90
37754;DHT22;23596;52.520;13.464;2023-01-19T08:10:37;-0.90;99.90
37754;DHT22;23596;52.520;13.464;2023-01-19T08:13:02;-1.00;99.90
37754;DHT22;23596;52.520;13.464;2023-01-19T08:15:28;-0.90;99.90
37754;DHT22;23596;52.520;13.464;2023-01-19T08:17:59;-0.90;99.90
37754;DHT22;23596;52.520;13.464;2023-01-19T08:20:26;-0.90;99.90
37754;DHT22;23596;52.520;13.464;2023-01-19T08:22:52;-0.90;99.90
37754;DHT22;23596;52.520;13.464;2023-01-19T08:25:40;-0.90;99.90
37754;DHT22;23596;52.520;13.464;2023-01-19T08:28:07;-0.90;99.90
37754;DHT22;23596;52.520;13.464;2023-01-19T08:30:33;-0.90;99.90
37754;DHT22;23596;52.520;13.464;2023-01-19T08:32:59;-0.90;99.90
37754;DHT22;23596;52.520;13.464;2023-01-19T08:35:39;-0.90;99.90
37754;DHT22;23596;52.520;13.464;2023-01-19T08:38:06;-0.90;99.90
37754;DHT22;23596;52.520;13.464;2023-01-19T08:40:36;-0.80;99.90
37754;DHT22;23596;52.520;13.464;2023-01-19T08:43:11;-0.80;99.90
37754;DHT22;23596;52.520;13.464;2023-01-19T08:45:39;-0.80;99.90
37754;DHT22;23596;52.520;13.464;2023-01-19T08:48:13;-0.80;99.90
37754;DHT22;23596;52.520;13.464;2023-01-19T08:50:38;-0.80;99.90
37754;DHT22;23596;52.520;13.464;2023-01-19T08:53:05;-0.70;99.90
37754;DHT22;23596;52.520;13.464;2023-01-19T08:55:34;-0.40;99.90
37754;DHT22;23596;52.520;13.464;2023-01-19T08:58:01;-0.80;99.90
37754;DHT22;23596;52.520;13.464;2023-01-19T09:00:29;-0.80;99.90
37754;DHT22;23596;52.520;13.464;2023-01-19T09:02:58;-0.80;99.90
37754;DHT22;23596;52.520;13.464;2023-01-19T09:05:26;-0.80;99.90
37754;DHT22;23596;52.520;13.464;2023-01-19T09:07:51;-0.70;99.90
37754;DHT22;23596;52.520;13.464;2023-01-19T09:10:17;-0.60;99.90
37754;DHT22;23596;52.520;13.464;2023-01-19T09:12:43;-0.60;99.90
37754;DHT22;23596;52.520;13.464;2023-01-19T09:15:11;-0.60;99.90
37754;DHT22;23596;52.520;13.464;2023-01-19T09:17:39;-0.60;99.90
37754;DHT22;23596;52.520;13.464;2023-01-19T09:20:07;0.50;99.90
37754;DHT22;23596;52.520;13.464;2023-01-19T09:22:33;-0.50;99.90
37754;DHT22;23596;52.520;13.464;2023-01-19T09:24:59;-0.50;99.90
37754;DHT22;23596;52.520;13.464;2023-01-19T09:27:24;-0.40;99.90
37754;DHT22;23596;52.520;13.464;2023-01-19T09:29:50;-0.40;99.90
37754;DHT22;23596;52.520;13.464;2023-01-19T09:32:19;-0.40;99.90
37754;DHT22;23596;52.520;13.464;2023-01-19T09:34:45;-0.40;99.90
37754;DHT22;23596;52.520;13.464;2023-01-19T09:37:11;0.00;99.90
37754;DHT22;23596;52.520;13.464;2023-01-19T09:39:37;-0.40;99.90
37754;DHT22;23596;52.520;13.464;2023-01-19T09:42:23;0.50;99.90
37754;DHT22;23596;52.520;13.464;2023-01-19T09:44:51;-0.30;99.90
37754;DHT22;23596;52.520;13.464;2023-01-19T09:47:22;-0.30;99.90
37754;DHT22;23596;52.520;13.464;2023-01-19T09:49:54;-0.30;99.90
37754;DHT22;23596;52.520;13.464;2023-01-19T09:52:23;-0.20;99.90
37754;DHT22;23596;52.520;13.464;2023-01-19T09:54:55;-0.10;99.90
37754;DHT22;23596;52.520;13.464;2023-01-19T09:57:22;-0.10;99.90
37754;DHT22;23596;52.520;13.464;2023-01-19T09:59:48;-0.10;99.90
37754;DHT22;23596;52.520;13.464;2023-01-19T10:10:20;0.10;99.90
37754;DHT22;23596;52.520;13.464;2023-01-19T10:13:13;0.10;99.90
37754;DHT22;23596;52.520;13.464;2023-01-19T10:18:27;0.20;99.90
37754;DHT22;23596;52.520;13.464;2023-01-19T10:29:21;0.40;99.90
37754;DHT22;23596;52.520;13.464;2023-01-19T10:31:51;0.40;99.90
37754;DHT22;23596;52.520;13.464;2023-01-19T10:34:17;0.40;99.90
37754;DHT22;23596;52.520;13.464;2023-01-19T10:36:48;0.50;99.90
37754;DHT22;23596;52.520;13.464;2023-01-19T10:39:17;0.60;99.90
37754;DHT22;23596;52.520;13.464;2023-01-19T10:41:48;0.50;99.90
37754;DHT22;23596;52.520;13.464;2023-01-19T10:44:23;0.60;99.90
37754;DHT22;23596;52.520;13.464;2023-01-19T10:46:50;0.60;99.90
37754;DHT22;23596;52.520;13.464;2023-01-19T10:49:29;0.60;99.90
37754;DHT22;23596;52.520;13.464;2023-01-19T10:51:57;0.70;99.90
37754;DHT22;23596;52.520;13.464;2023-01-19T10:54:25;0.70;99.90
37754;DHT22;23596;52.520;13.464;2023-01-19T10:56:57;0.70;99.90
37754;DHT22;23596;52.520;13.464;2023-01-19T10:59:34;0.90;99.90
37754;DHT22;23596;52.520;13.464;2023-01-19T11:02:27;0.80;99.90
37754;DHT22;23596;52.520;13.464;2023-01-19T11:04:55;0.90;99.90
37754;DHT22;23596;52.520;13.464;2023-01-19T11:07:31;0.90;99.90
37754;DHT22;23596;52.520;13.464;2023-01-19T11:12:45;1.00;99.90
37754;DHT22;23596;52.520;13.464;2023-01-19T11:17:48;1.10;99.90
37754;DHT22;23596;52.520;13.464;2023-01-19T11:20:20;1.20;99.90
37754;DHT22;23596;52.520;13.464;2023-01-19T11:22:47;1.30;99.90
37754;DHT22;23596;52.520;13.464;2023-01-19T11:25:22;1.30;99.90
37754;DHT22;23596;52.520;13.464;2023-01-19T11:27:52;1.40;99.90
37754;DHT22;23596;52.520;13.464;2023-01-19T11:30:21;1.40;99.90
37754;DHT22;23596;52.520;13.464;2023-01-19T11:32:48;1.50;99.90
37754;DHT22;23596;52.520;13.464;2023-01-19T11:38:16;1.60;99.90
37754;DHT22;23596;52.520;13.464;2023-01-19T11:40:50;1.60;99.90
37754;DHT22;23596;52.520;13.464;2023-01-19T11:43:18;1.70;99.90
37754;DHT22;23596;52.520;13.464;2023-01-19T11:45:45;1.60;99.90
37754;DHT22;23596;52.520;13.464;2023-01-19T11:48:22;1.70;99.90
37754;DHT22;23596;52.520;13.464;2023-01-19T11:50:49;1.70;99.90
37754;DHT22;23596;52.520;13.464;2023-01-19T11:53:24;1.80;99.90
37754;DHT22;23596;52.520;13.464;2023-01-19T11:55:52;1.80;99.90
37754;DHT22;23596;52.520;13.464;2023-01-19T11:58:19;1.80;99.90
37754;DHT22;23596;52.520;13.464;2023-01-19T12:00:51;1.90;99.90
37754;DHT22;23596;52.520;13.464;2023-01-19T12:03:30;1.90;99.90
37754;DHT22;23596;52.520;13.464;2023-01-19T12:06:06;2.00;99.90
37754;DHT22;23596;52.520;13.464;2023-01-19T12:08:42;2.00;99.90
37754;DHT22;23596;52.520;13.464;2023-01-19T12:11:17;2.00;99.90
37754;DHT22;23596;52.520;13.464;2023-01-19T12:13:44;2.10;99.90
37754;DHT22;23596;52.520;13.464;2023-01-19T12:16:19;2.10;99.90
37754;DHT22;23596;52.520;13.464;2023-01-19T12:19:10;2.20;99.90
37754;DHT22;23596;52.520;13.464;2023-01-19T12:21:37;2.20;99.90
37754;DHT22;23596;52.520;13.464;2023-01-19T12:24:43;2.30;99.90
37754;DHT22;23596;52.520;13.464;2023-01-19T12:27:05;2.30;99.90
37754;DHT22;23596;52.520;13.464;2023-01-19T12:29:33;2.30;99.90
37754;DHT22;23596;52.520;13.464;2023-01-19T12:39:52;2.50;99.90
37754;DHT22;23596;52.520;13.464;2023-01-19T12:42:19;2.50;99.90
37754;DHT22;23596;52.520;13.464;2023-01-19T12:44:46;2.50;99.90
37754;DHT22;23596;52.520;13.464;2023-01-19T12:52:10;4.30;99.90
37754;DHT22;23596;52.520;13.464;2023-01-19T12:54:49;2.60;99.90
37754;DHT22;23596;52.520;13.464;2023-01-19T12:57:45;2.60;99.90
37754;DHT22;23596;52.520;13.464;2023-01-19T13:02:56;2.70;99.90
37754;DHT22;23596;52.520;13.464;2023-01-19T13:18:55;2.70;99.90
37754;DHT22;23596;52.520;13.464;2023-01-19T13:21:39;2.70;99.90
37754;DHT22;23596;52.520;13.464;2023-01-19T13:24:06;2.80;99.90
37754;DHT22;23596;52.520;13.464;2023-01-19T13:26:41;2.80;99.90
37754;DHT22;23596;52.520;13.464;2023-01-19T13:29:39;2.80;99.90
37754;DHT22;23596;52.520;13.464;2023-01-19T13:32:13;2.90;99.90
37754;DHT22;23596;52.520;13.464;2023-01-19T13:34:46;2.90;99.90
37754;DHT22;23596;52.520;13.464;2023-01-19T13:37:20;2.90;99.90
37754;DHT22;23596;52.520;13.464;2023-01-19T13:39:48;2.90;99.90
37754;DHT22;23596;52.520;13.464;2023-01-19T13:42:35;3.00;99.90
37754;DHT22;23596;52.520;13.464;2023-01-19T13:45:16;2.90;99.90
37754;DHT22;23596;52.520;13.464;2023-01-19T13:47:47;2.90;99.90
37754;DHT22;23596;52.520;13.464;2023-01-19T13:50:20;2.90;99.90
37754;DHT22;23596;52.520;13.464;2023-01-19T13:52:46;2.80;99.90
37754;DHT22;23596;52.520;13.464;2023-01-19T13:55:13;2.90;99.90
37754;DHT22;23596;52.520;13.464;2023-01-19T13:57:42;2.70;99.90
37754;DHT22;23596;52.520;13.464;2023-01-19T14:03:00;2.70;99.90
37754;DHT22;23596;52.520;13.464;2023-01-19T14:05:34;2.70;99.90
37754;DHT22;23596;52.520;13.464;2023-01-19T14:10:38;2.70;99.90
37754;DHT22;23596;52.520;13.464;2023-01-19T14:13:16;2.70;99.90
37754;DHT22;23596;52.520;13.464;2023-01-19T14:15:43;2.60;99.90
37754;DHT22;23596;52.520;13.464;2023-01-19T14:18:21;2.60;99.90
37754;DHT22;23596;52.520;13.464;2023-01-19T14:21:01;2.50;99.90
37754;DHT22;23596;52.520;13.464;2023-01-19T14:26:42;2.50;99.90
37754;DHT22;23596;52.520;13.464;2023-01-19T14:31:44;2.40;99.90
37754;DHT22;23596;52.520;13.464;2023-01-19T14:36:55;2.40;99.90
37754;DHT22;23596;52.520;13.464;2023-01-19T14:39:23;2.30;99.90
37754;DHT22;23596;52.520;13.464;2023-01-19T14:41:50;2.40;99.90
37754;DHT22;23596;52.520;13.464;2023-01-19T14:44:44;2.40;99.90
37754;DHT22;23596;52.520;13.464;2023-01-19T14:47:30;2.30;99.90
37754;DHT22;23596;52.520;13.464;2023-01-19T14:50:02;2.30;99.90
37754;DHT22;23596;52.520;13.464;2023-01-19T14:52:38;2.30;99.90
37754;DHT22;23596;52.520;13.464;2023-01-19T14:55:06;2.20;99.90
37754;DHT22;23596;52.520;13.464;2023-01-19T14:57:40;2.10;99.90
37754;DHT22;23596;52.520;13.464;2023-01-19T15:00:17;2.10;99.90
37754;DHT22;23596;52.520;13.464;2023-01-19T15:02:45;2.00;99.90
37754;DHT22;23596;52.520;13.464;2023-01-19T15:05:11;1.90;99.90
37754;DHT22;23596;52.520;13.464;2023-01-19T15:07:38;1.80;99.90
37754;DHT22;23596;52.520;13.464;2023-01-19T15:10:20;1.80;99.90
37754;DHT22;23596;52.520;13.464;2023-01-19T15:12:47;1.80;99.90
37754;DHT22;23596;52.520;13.464;2023-01-19T15:15:19;1.70;99.90
37754;DHT22;23596;52.520;13.464;2023-01-19T15:17:47;1.70;99.90
37754;DHT22;23596;52.520;13.464;2023-01-19T15:20:20;1.60;99.90
37754;DHT22;23596;52.520;13.464;2023-01-19T15:22:46;1.60;99.90
37754;DHT22;23596;52.520;13.464;2023-01-19T15:25:14;1.60;99.90
37754;DHT22;23596;52.520;13.464;2023-01-19T15:27:41;1.50;99.90
37754;DHT22;23596;52.520;13.464;2023-01-19T15:30:18;1.60;99.90
37754;DHT22;23596;52.520;13.464;2023-01-19T15:32:44;1.50;99.90
37754;DHT22;23596;52.520;13.464;2023-01-19T15:35:17;1.40;99.90
37754;DHT22;23596;52.520;13.464;2023-01-19T15:37:44;2.00;99.90
37754;DHT22;23596;52.520;13.464;2023-01-19T15:40:10;1.50;99.90
37754;DHT22;23596;52.520;13.464;2023-01-19T15:42:36;1.50;99.90
37754;DHT22;23596;52.520;13.464;2023-01-19T15:45:02;1.60;99.90
37754;DHT22;23596;52.520;13.464;2023-01-19T15:47:41;1.50;99.90
37754;DHT22;23596;52.520;13.464;2023-01-19T15:50:07;1.50;99.90
37754;DHT22;23596;52.520;13.464;2023-01-19T15:52:33;1.50;99.90
37754;DHT22;23596;52.520;13.464;2023-01-19T15:54:58;1.50;99.90
37754;DHT22;23596;52.520;13.464;2023-01-19T15:57:24;1.60;99.90
37754;DHT22;23596;52.520;13.464;2023-01-19T15:59:50;1.50;99.90
37754;DHT22;23596;52.520;13.464;2023-01-19T16:02:15;1.60;99.90
37754;DHT22;23596;52.520;13.464;2023-01-19T16:04:41;2.70;99.90
37754;DHT22;23596;52.520;13.464;2023-01-19T16:07:06;1.50;99.90
37754;DHT22;23596;52.520;13.464;2023-01-19T16:09:32;1.60;99.90
37754;DHT22;23596;52.520;13.464;2023-01-19T16:11:58;1.60;99.90
37754;DHT22;23596;52.520;13.464;2023-01-19T16:14:23;1.60;99.90
37754;DHT22;23596;52.520;13.464;2023-01-19T16:16:49;1.50;99.90
37754;DHT22;23596;52.520;13.464;2023-01-19T16:19:15;1.60;99.90
37754;DHT22;23596;52.520;13.464;2023-01-19T16:21:40;1.60;99.90
37754;DHT22;23596;52.520;13.464;2023-01-19T16:24:08;1.60;99.90
37754;DHT22;23596;52.520;13.464;2023-01-19T16:26:34;1.60;99.90
37754;DHT22;23596;52.520;13.464;2023-01-19T16:29:06;1.50;99.90
37754;DHT22;23596;52.520;13.464;2023-01-19T16:31:33;1.50;99.90
37754;DHT22;23596;52.520;13.464;2023-01-19T16:33:58;1.50;99.90
37754;DHT22;23596;52.520;13.464;2023-01-19T16:36:27;1.50;99.90
37754;DHT22;23596;52.520;13.464;2023-01-19T16:38:53;1.40;99.90
37754;DHT22;23596;52.520;13.464;2023-01-19T16:41:22;1.50;99.90
37754;DHT22;23596;52.520;13.464;2023-01-19T16:43:55;2.60;99.90
37754;DHT22;23596;52.520;13.464;2023-01-19T16:46:27;1.50;99.90
37754;DHT22;23596;52.520;13.464;2023-01-19T16:48:58;1.50;99.90
37754;DHT22;23596;52.520;13.464;2023-01-19T16:51:24;1.40;99.90
37754;DHT22;23596;52.520;13.464;2023-01-19T16:53:50;1.50;99.90
37754;DHT22;23596;52.520;13.464;2023-01-19T16:56:15;1.40;99.90
37754;DHT22;23596;52.520;13.464;2023-01-19T16:58:41;1.40;99.90
37754;DHT22;23596;52.520;13.464;2023-01-19T17:03:35;1.50;99.90
37754;DHT22;23596;52.520;13.464;2023-01-19T17:06:03;1.50;99.90
37754;DHT22;23596;52.520;13.464;2023-01-19T17:08:29;1.50;99.90
37754;DHT22;23596;52.520;13.464;2023-01-19T17:10:55;1.60;99.90
37754;DHT22;23596;52.520;13.464;2023-01-19T17:13:21;3.10;99.90
37754;DHT22;23596;52.520;13.464;2023-01-19T17:15:47;1.60;99.90